AXM1781 WBGG-WIOO
Flight info
| Callsign | AXM1781 |
|---|---|
| Flight time | 0h 58m |
| Altitude | 18000 |
| Route | WBGG/25 N0327F120 PAPS1C PAPSA PAPS1F WIOO/15 |
| Aircraft | A320/L-V/N |
Departure
| Time | 2026-05-07 02:36 |
|---|---|
| Airport | Kuching International Airport (WBGG) |
Arrival
| Time | 2026-05-07 03:35 |
|---|---|
| Airport | Supadio International Airport (WIOO) |
| Time | Latitude | Longitude | Altitude | Speed | Heading |
|---|---|---|---|---|---|
| 2026-05-07 02:20 | 1.48603 | 110.34094 | 87 ft | 0 kts | 338° |
| 2026-05-07 02:24 | 1.48602 | 110.34094 | 87 ft | 0 kts | 338° |
| 2026-05-07 02:25 | 1.48591 | 110.34099 | 87 ft | 2 kts | 339° |
| 2026-05-07 02:25 | 1.48578 | 110.34104 | 87 ft | 2 kts | 338° |
| 2026-05-07 02:25 | 1.48565 | 110.34109 | 87 ft | 2 kts | 338° |
| 2026-05-07 02:25 | 1.48552 | 110.34115 | 87 ft | 1 kts | 353° |
| 2026-05-07 02:26 | 1.48539 | 110.34111 | 87 ft | 2 kts | 41° |
| 2026-05-07 02:26 | 1.48533 | 110.34103 | 87 ft | 1 kts | 76° |
| 2026-05-07 02:26 | 1.48531 | 110.34098 | 87 ft | 0 kts | 69° |
| 2026-05-07 02:28 | 1.48535 | 110.34107 | 87 ft | 2 kts | 70° |
| 2026-05-07 02:28 | 1.48544 | 110.34135 | 87 ft | 5 kts | 72° |
| 2026-05-07 02:28 | 1.48563 | 110.34182 | 87 ft | 8 kts | 68° |
| 2026-05-07 02:29 | 1.48535 | 110.34238 | 87 ft | 11 kts | 141° |
| 2026-05-07 02:29 | 1.48524 | 110.34315 | 87 ft | 12 kts | 70° |
| 2026-05-07 02:29 | 1.48559 | 110.34404 | 87 ft | 14 kts | 69° |
| 2026-05-07 02:29 | 1.48597 | 110.34504 | 85 ft | 17 kts | 67° |
| 2026-05-07 02:30 | 1.48649 | 110.34626 | 82 ft | 19 kts | 68° |
| 2026-05-07 02:30 | 1.48699 | 110.34750 | 80 ft | 18 kts | 68° |
| 2026-05-07 02:30 | 1.48745 | 110.34869 | 79 ft | 18 kts | 68° |
| 2026-05-07 02:30 | 1.48794 | 110.34988 | 76 ft | 18 kts | 68° |
| 2026-05-07 02:31 | 1.48841 | 110.35107 | 75 ft | 18 kts | 69° |
| 2026-05-07 02:31 | 1.48888 | 110.35221 | 75 ft | 17 kts | 68° |
| 2026-05-07 02:31 | 1.48934 | 110.35334 | 73 ft | 18 kts | 68° |
| 2026-05-07 02:31 | 1.48985 | 110.35460 | 69 ft | 20 kts | 67° |
| 2026-05-07 02:32 | 1.49039 | 110.35583 | 63 ft | 22 kts | 66° |
| 2026-05-07 02:32 | 1.49101 | 110.35746 | 55 ft | 24 kts | 69° |
| 2026-05-07 02:32 | 1.49145 | 110.35861 | 51 ft | 13 kts | 71° |
| 2026-05-07 02:32 | 1.49105 | 110.35936 | 48 ft | 15 kts | 146° |
| 2026-05-07 02:33 | 1.49023 | 110.35997 | 44 ft | 7 kts | 199° |
| 2026-05-07 02:33 | 1.49000 | 110.35960 | 45 ft | 0 kts | 249° |
| 2026-05-07 02:33 | 1.49001 | 110.35960 | 45 ft | 0 kts | 249° |
| 2026-05-07 02:35 | 1.49000 | 110.35960 | 45 ft | 1 kts | 249° |
| 2026-05-07 02:35 | 1.48908 | 110.35730 | 56 ft | 71 kts | 248° |
| 2026-05-07 02:36 | 1.48644 | 110.35062 | 78 ft | 133 kts | 248° |
| 2026-05-07 02:36 | 1.48240 | 110.34052 | 245 ft | 168 kts | 249° |
| 2026-05-07 02:36 | 1.47804 | 110.32960 | 803 ft | 170 kts | 248° |
| 2026-05-07 02:36 | 1.47401 | 110.31979 | 1361 ft | 172 kts | 248° |
| 2026-05-07 02:37 | 1.46934 | 110.30853 | 1987 ft | 177 kts | 248° |
| 2026-05-07 02:37 | 1.46434 | 110.29649 | 2455 ft | 193 kts | 248° |
| 2026-05-07 02:37 | 1.45912 | 110.28388 | 2917 ft | 210 kts | 248° |
| 2026-05-07 02:37 | 1.45344 | 110.27012 | 3385 ft | 226 kts | 249° |
| 2026-05-07 02:38 | 1.44718 | 110.25490 | 3804 ft | 249 kts | 248° |
| 2026-05-07 02:38 | 1.44050 | 110.23869 | 4484 ft | 256 kts | 248° |
| 2026-05-07 02:38 | 1.43353 | 110.22181 | 4993 ft | 270 kts | 248° |
| 2026-05-07 02:38 | 1.42620 | 110.20403 | 5524 ft | 282 kts | 248° |
| 2026-05-07 02:39 | 1.41868 | 110.18580 | 6269 ft | 286 kts | 248° |
| 2026-05-07 02:39 | 1.40997 | 110.16768 | 7030 ft | 289 kts | 233° |
| 2026-05-07 02:39 | 1.39500 | 110.15465 | 7761 ft | 288 kts | 204° |
| 2026-05-07 02:39 | 1.37599 | 110.15008 | 8550 ft | 285 kts | 179° |
| 2026-05-07 02:40 | 1.35653 | 110.15412 | 9284 ft | 287 kts | 160° |
| 2026-05-07 02:40 | 1.33734 | 110.16024 | 9917 ft | 293 kts | 171° |
| 2026-05-07 02:40 | 1.31839 | 110.16016 | 10499 ft | 298 kts | 186° |
| 2026-05-07 02:40 | 1.29711 | 110.15742 | 10874 ft | 314 kts | 188° |
| 2026-05-07 02:41 | 1.27509 | 110.15412 | 11333 ft | 326 kts | 188° |
| 2026-05-07 02:41 | 1.25261 | 110.15049 | 12020 ft | 330 kts | 188° |
| 2026-05-07 02:41 | 1.23028 | 110.14680 | 12744 ft | 332 kts | 189° |
| 2026-05-07 02:41 | 1.21129 | 110.14279 | 13397 ft | 333 kts | 196° |
| 2026-05-07 02:42 | 1.18767 | 110.13315 | 14122 ft | 337 kts | 208° |
| 2026-05-07 02:42 | 1.16779 | 110.12054 | 14751 ft | 342 kts | 213° |
| 2026-05-07 02:42 | 1.14861 | 110.10713 | 15335 ft | 346 kts | 214° |
| 2026-05-07 02:42 | 1.12885 | 110.09317 | 15910 ft | 351 kts | 214° |
| 2026-05-07 02:43 | 1.10854 | 110.07890 | 16512 ft | 354 kts | 214° |
| 2026-05-07 02:43 | 1.08818 | 110.06467 | 17071 ft | 358 kts | 214° |
| 2026-05-07 02:43 | 1.06740 | 110.05022 | 17585 ft | 362 kts | 213° |
| 2026-05-07 02:43 | 1.04645 | 110.03567 | 17858 ft | 365 kts | 213° |
| 2026-05-07 02:44 | 1.02554 | 110.02119 | 17895 ft | 364 kts | 213° |
| 2026-05-07 02:44 | 1.00446 | 110.00659 | 17903 ft | 364 kts | 213° |
| 2026-05-07 02:44 | 0.98385 | 109.99231 | 17899 ft | 364 kts | 213° |
| 2026-05-07 02:44 | 0.96260 | 109.97761 | 17896 ft | 364 kts | 213° |
| 2026-05-07 02:45 | 0.94150 | 109.96301 | 17889 ft | 363 kts | 213° |
| 2026-05-07 02:45 | 0.92073 | 109.94865 | 17885 ft | 362 kts | 213° |
| 2026-05-07 02:45 | 0.90013 | 109.93439 | 17885 ft | 362 kts | 213° |
| 2026-05-07 02:45 | 0.87926 | 109.92002 | 17883 ft | 362 kts | 213° |
| 2026-05-07 02:46 | 0.85840 | 109.90569 | 17880 ft | 362 kts | 213° |
| 2026-05-07 02:46 | 0.83733 | 109.89117 | 17730 ft | 363 kts | 213° |
| 2026-05-07 02:46 | 0.81644 | 109.87674 | 17296 ft | 363 kts | 213° |
| 2026-05-07 02:46 | 0.79584 | 109.86249 | 16932 ft | 360 kts | 213° |
| 2026-05-07 02:47 | 0.77685 | 109.84935 | 16645 ft | 355 kts | 213° |
| 2026-05-07 02:47 | 0.75645 | 109.83521 | 16349 ft | 350 kts | 213° |
| 2026-05-07 02:47 | 0.73637 | 109.82132 | 16005 ft | 347 kts | 213° |
| 2026-05-07 02:47 | 0.71658 | 109.80759 | 15662 ft | 344 kts | 213° |
| 2026-05-07 02:48 | 0.69841 | 109.79501 | 15336 ft | 341 kts | 213° |
| 2026-05-07 03:21 | 0.68372 | 109.78484 | 15068 ft | 340 kts | 213° |
| 2026-05-07 03:21 | 0.66431 | 109.77146 | 14712 ft | 337 kts | 212° |
| 2026-05-07 03:21 | 0.64433 | 109.75898 | 14347 ft | 334 kts | 209° |
| 2026-05-07 03:21 | 0.62448 | 109.74745 | 13990 ft | 332 kts | 209° |
| 2026-05-07 03:22 | 0.60440 | 109.73586 | 13612 ft | 330 kts | 209° |
| 2026-05-07 03:22 | 0.58418 | 109.72420 | 13237 ft | 329 kts | 209° |
| 2026-05-07 03:22 | 0.56440 | 109.71275 | 12856 ft | 328 kts | 209° |
| 2026-05-07 03:22 | 0.54480 | 109.70145 | 12477 ft | 327 kts | 209° |
| 2026-05-07 03:23 | 0.52506 | 109.69003 | 12092 ft | 326 kts | 209° |
| 2026-05-07 03:23 | 0.50552 | 109.67870 | 11698 ft | 325 kts | 209° |
| 2026-05-07 03:23 | 0.48586 | 109.66730 | 11301 ft | 324 kts | 209° |
| 2026-05-07 03:23 | 0.46607 | 109.65582 | 10921 ft | 323 kts | 209° |
| 2026-05-07 03:24 | 0.44683 | 109.64467 | 10549 ft | 321 kts | 209° |
| 2026-05-07 03:24 | 0.42730 | 109.63335 | 10187 ft | 319 kts | 209° |
| 2026-05-07 03:24 | 0.40811 | 109.62224 | 9986 ft | 310 kts | 210° |
| 2026-05-07 03:24 | 0.38989 | 109.61169 | 9913 ft | 297 kts | 210° |
| 2026-05-07 03:25 | 0.37187 | 109.60127 | 9558 ft | 296 kts | 210° |
| 2026-05-07 03:25 | 0.35375 | 109.59133 | 9216 ft | 295 kts | 207° |
| 2026-05-07 03:25 | 0.33567 | 109.58204 | 8888 ft | 293 kts | 207° |
| 2026-05-07 03:25 | 0.31747 | 109.57275 | 8557 ft | 291 kts | 207° |
| 2026-05-07 03:26 | 0.29938 | 109.56354 | 8229 ft | 289 kts | 207° |
| 2026-05-07 03:26 | 0.28146 | 109.55438 | 7901 ft | 287 kts | 207° |
| 2026-05-07 03:26 | 0.26363 | 109.54527 | 7580 ft | 286 kts | 207° |
| 2026-05-07 03:26 | 0.24658 | 109.53503 | 7208 ft | 285 kts | 221° |
| 2026-05-07 03:27 | 0.23289 | 109.52038 | 6820 ft | 286 kts | 231° |
| 2026-05-07 03:27 | 0.22057 | 109.50488 | 6469 ft | 284 kts | 232° |
| 2026-05-07 03:27 | 0.20830 | 109.48955 | 6141 ft | 283 kts | 231° |
| 2026-05-07 03:27 | 0.19581 | 109.47447 | 5820 ft | 281 kts | 230° |
| 2026-05-07 03:28 | 0.18315 | 109.45956 | 5506 ft | 279 kts | 230° |
| 2026-05-07 03:28 | 0.17046 | 109.44487 | 5202 ft | 277 kts | 229° |
| 2026-05-07 03:28 | 0.15772 | 109.43024 | 4901 ft | 275 kts | 229° |
| 2026-05-07 03:28 | 0.14515 | 109.41588 | 4603 ft | 273 kts | 229° |
| 2026-05-07 03:29 | 0.13254 | 109.40148 | 4307 ft | 271 kts | 229° |
| 2026-05-07 03:29 | 0.12018 | 109.38738 | 4014 ft | 268 kts | 229° |
| 2026-05-07 03:29 | 0.10785 | 109.37333 | 3718 ft | 265 kts | 229° |
| 2026-05-07 03:29 | 0.09585 | 109.35964 | 3433 ft | 262 kts | 229° |
| 2026-05-07 03:30 | 0.08377 | 109.34586 | 3146 ft | 259 kts | 229° |
| 2026-05-07 03:30 | 0.07181 | 109.33263 | 2984 ft | 250 kts | 220° |
| 2026-05-07 03:30 | 0.05703 | 109.32484 | 2974 ft | 232 kts | 188° |
| 2026-05-07 03:30 | 0.04124 | 109.32554 | 2988 ft | 229 kts | 163° |
| 2026-05-07 03:31 | 0.02603 | 109.33095 | 2988 ft | 227 kts | 155° |
| 2026-05-07 03:31 | 0.01188 | 109.33722 | 2956 ft | 215 kts | 154° |
| 2026-05-07 03:31 | -0.00181 | 109.34324 | 2779 ft | 210 kts | 155° |
| 2026-05-07 03:31 | -0.01524 | 109.34887 | 2515 ft | 209 kts | 155° |
| 2026-05-07 03:32 | -0.02872 | 109.35435 | 2248 ft | 209 kts | 156° |
| 2026-05-07 03:32 | -0.04213 | 109.35976 | 2073 ft | 201 kts | 156° |
| 2026-05-07 03:32 | -0.05511 | 109.36499 | 1767 ft | 195 kts | 156° |
| 2026-05-07 03:32 | -0.06739 | 109.36997 | 1498 ft | 186 kts | 156° |
| 2026-05-07 03:33 | -0.07900 | 109.37468 | 1289 ft | 169 kts | 156° |
| 2026-05-07 03:33 | -0.08940 | 109.37891 | 1045 ft | 153 kts | 156° |
| 2026-05-07 03:33 | -0.09890 | 109.38277 | 840 ft | 141 kts | 156° |
| 2026-05-07 03:33 | -0.10806 | 109.38648 | 682 ft | 140 kts | 156° |
| 2026-05-07 03:34 | -0.11711 | 109.39014 | 518 ft | 140 kts | 156° |
| 2026-05-07 03:34 | -0.12627 | 109.39387 | 340 ft | 139 kts | 156° |
| 2026-05-07 03:34 | -0.13524 | 109.39758 | 156 ft | 139 kts | 156° |
| 2026-05-07 03:34 | -0.14431 | 109.40129 | 10 ft | 135 kts | 156° |
| 2026-05-07 03:35 | -0.15067 | 109.40391 | 12 ft | 73 kts | 156° |
| 2026-05-07 03:35 | -0.15463 | 109.40550 | 9 ft | 39 kts | 157° |
| 2026-05-07 03:35 | -0.15593 | 109.40609 | 9 ft | 6 kts | 196° |
| 2026-05-07 03:35 | -0.15573 | 109.40587 | 9 ft | 7 kts | 348° |
| 2026-05-07 03:36 | -0.15495 | 109.40560 | 9 ft | 16 kts | 337° |
| 2026-05-07 03:36 | -0.15365 | 109.40509 | 9 ft | 23 kts | 338° |
| 2026-05-07 03:36 | -0.15197 | 109.40441 | 10 ft | 28 kts | 337° |
| 2026-05-07 03:36 | -0.15000 | 109.40362 | 12 ft | 30 kts | 338° |
| 2026-05-07 03:37 | -0.14810 | 109.40284 | 11 ft | 28 kts | 337° |
| 2026-05-07 03:37 | -0.14699 | 109.40252 | 10 ft | 10 kts | 25° |
| 2026-05-07 03:37 | -0.14671 | 109.40315 | 11 ft | 9 kts | 97° |
| 2026-05-07 03:37 | -0.14711 | 109.40350 | 12 ft | 3 kts | 137° |
| 2026-05-07 03:38 | -0.14712 | 109.40376 | 12 ft | 1 kts | 71° |
| 2026-05-07 03:38 | -0.14710 | 109.40381 | 12 ft | 1 kts | 69° |
| 2026-05-07 03:38 | -0.14708 | 109.40385 | 12 ft | 0 kts | 69° |